Time;durP1;ratioP1;P1;durP2;ratioP2;P2;SDS_P1;SDS_P2;PMS_P1;PMS_P2;Temp;Humidity;BMP_temperature;BMP_pressure;BME280_temperature;BME280_humidity;BME280_pressure;Samples;Min_cycle;Max_cycle;Signal;HPM_P1;HPM_P2
2023/03/24 05:00:32;;;;;;;1.30;1.30;;;11.10;99.90;;;;;;5775932;23;20932;-70
2023/03/24 05:02:59;;;;;;;0.52;0.52;;;11.10;99.90;;;;;;4906618;29;20230;-70
2023/03/24 05:05:26;;;;;;;1.70;1.60;;;11.10;99.90;;;;;;4915515;29;20686;-70
2023/03/24 05:07:53;;;;;;;0.90;0.90;;;11.20;99.90;;;;;;4921259;29;20210;-69
2023/03/24 05:10:20;;;;;;;1.50;1.48;;;11.20;99.90;;;;;;4921303;29;20232;-70
2023/03/24 05:12:47;;;;;;;0.52;0.52;;;11.20;99.90;;;;;;4922367;29;20700;-70
2023/03/24 05:15:14;;;;;;;1.35;1.35;;;11.20;99.90;;;;;;4913095;29;20209;-69
2023/03/24 05:17:42;;;;;;;0.75;0.75;;;11.20;99.90;;;;;;4916711;29;20589;-69
2023/03/24 05:20:10;;;;;;;1.27;1.27;;;11.20;99.90;;;;;;4915788;29;20296;-72
2023/03/24 05:22:37;;;;;;;1.63;0.80;;;11.20;99.90;;;;;;4914489;29;20234;-71
2023/03/24 05:25:05;;;;;;;0.68;0.68;;;11.30;99.90;;;;;;4914709;29;20203;-72
2023/03/24 05:27:32;;;;;;;1.10;1.10;;;11.30;99.90;;;;;;4915086;29;20226;-72
2023/03/24 05:29:59;;;;;;;1.85;0.88;;;11.30;99.90;;;;;;4915362;29;20214;-72
2023/03/24 05:32:26;;;;;;;1.08;1.08;;;11.30;99.90;;;;;;4921119;29;20233;-71
2023/03/24 05:34:54;;;;;;;0.60;0.60;;;11.30;99.90;;;;;;4906110;29;20211;-72
2023/03/24 05:37:21;;;;;;;1.52;1.13;;;11.30;99.90;;;;;;4912342;29;20218;-72
2023/03/24 05:39:48;;;;;;;1.08;0.65;;;11.30;99.90;;;;;;4917059;29;20220;-72
2023/03/24 05:42:15;;;;;;;1.92;1.83;;;11.30;99.90;;;;;;4922247;29;20238;-72
2023/03/24 05:44:42;;;;;;;0.38;0.38;;;11.40;99.90;;;;;;4912316;29;20273;-72
2023/03/24 05:47:09;;;;;;;1.33;1.23;;;11.40;99.90;;;;;;4912197;29;20210;-72
2023/03/24 05:49:36;;;;;;;1.48;1.48;;;11.40;99.90;;;;;;4914981;29;20588;-72
2023/03/24 05:52:07;;;;;;;1.20;0.90;;;11.50;99.90;;;;;;4912181;29;20257;-72
2023/03/24 05:54:34;;;;;;;1.40;1.40;;;11.50;99.90;;;;;;4915806;29;20695;-72
2023/03/24 05:57:01;;;;;;;1.17;1.17;;;11.50;99.90;;;;;;4913576;29;20218;-72
2023/03/24 05:59:28;;;;;;;1.25;0.98;;;11.50;99.90;;;;;;4916429;29;20207;-72
2023/03/24 06:01:57;;;;;;;1.98;1.60;;;11.50;99.90;;;;;;4919652;29;20253;-72
2023/03/24 06:04:24;;;;;;;1.27;1.27;;;11.60;99.90;;;;;;4922937;29;20652;-72
2023/03/24 06:06:51;;;;;;;1.33;1.02;;;11.60;99.90;;;;;;4917722;29;20211;-72
2023/03/24 06:09:19;;;;;;;1.52;1.42;;;11.60;99.90;;;;;;4912764;29;20214;-72
2023/03/24 06:11:45;;;;;;;1.00;1.00;;;11.60;99.90;;;;;;4918529;29;20226;-72
2023/03/24 06:14:13;;;;;;;1.88;1.75;;;11.60;99.90;;;;;;4923107;29;20836;-70
2023/03/24 06:16:40;;;;;;;0.63;0.63;;;11.60;99.90;;;;;;4911752;29;20215;-70
2023/03/24 06:19:07;;;;;;;1.48;1.38;;;11.60;99.90;;;;;;4926554;29;20206;-70
2023/03/24 06:21:34;;;;;;;1.67;1.65;;;11.70;99.90;;;;;;4923752;29;20229;-70
2023/03/24 06:24:02;;;;;;;0.90;0.90;;;11.70;99.90;;;;;;4921750;29;20218;-70
2023/03/24 06:26:30;;;;;;;1.00;1.00;;;11.70;99.90;;;;;;4913634;29;20207;-70
2023/03/24 06:28:57;;;;;;;2.53;2.28;;;11.70;99.90;;;;;;4912697;29;20211;-70
2023/03/24 06:31:26;;;;;;;7.45;4.95;;;11.70;99.90;;;;;;4922242;29;20590;-70
2023/03/24 06:33:53;;;;;;;4.63;4.32;;;11.70;99.90;;;;;;4921264;29;20218;-71
2023/03/24 06:36:22;;;;;;;8.32;6.65;;;11.70;99.90;;;;;;4920134;29;20210;-70
2023/03/24 06:38:49;;;;;;;3.97;3.67;;;11.60;99.90;;;;;;4908566;29;20265;-70
2023/03/24 06:41:16;;;;;;;8.20;3.50;;;11.60;99.90;;;;;;4904841;29;20248;-71
2023/03/24 06:43:44;;;;;;;34.20;17.35;;;11.60;99.90;;;;;;4920275;29;20229;-70
2023/03/24 06:46:11;;;;;;;3.00;2.80;;;11.70;99.90;;;;;;4915950;29;20215;-71
2023/03/24 06:48:38;;;;;;;7.72;4.80;;;11.60;99.90;;;;;;4916517;29;20214;-70
2023/03/24 06:51:05;;;;;;;7.78;7.00;;;11.70;99.90;;;;;;4917580;29;20226;-70
2023/03/24 06:53:32;;;;;;;4.13;3.78;;;11.70;99.90;;;;;;4914831;29;20226;-70
2023/03/24 06:55:59;;;;;;;6.28;4.47;;;11.70;99.90;;;;;;4920976;29;20210;-70
2023/03/24 06:58:26;;;;;;;3.47;3.17;;;11.70;99.90;;;;;;4916882;29;20233;-70
2023/03/24 07:00:55;;;;;;;3.25;3.00;;;11.80;99.90;;;;;;4913940;29;20309;-70
2023/03/24 07:03:22;;;;;;;6.97;3.22;;;11.70;99.90;;;;;;4919724;29;20231;-70
2023/03/24 07:05:49;;;;;;;1.98;1.92;;;11.70;99.90;;;;;;4917717;29;20583;-70
2023/03/24 07:08:16;;;;;;;2.22;2.00;;;11.70;99.90;;;;;;4910937;29;20218;-71
2023/03/24 07:10:43;;;;;;;2.47;2.22;;;11.70;99.90;;;;;;4917316;29;20237;-71
2023/03/24 07:13:10;;;;;;;2.08;1.98;;;11.80;99.90;;;;;;4916126;29;20209;-71
2023/03/24 07:15:37;;;;;;;2.73;1.37;;;11.80;99.90;;;;;;4918288;29;20313;-71
2023/03/24 07:18:05;;;;;;;1.55;1.55;;;11.80;99.90;;;;;;4917695;29;20469;-71
2023/03/24 07:20:32;;;;;;;2.60;2.17;;;11.90;99.90;;;;;;4912836;29;20657;-71
2023/03/24 07:22:58;;;;;;;2.05;1.95;;;11.90;99.90;;;;;;4920069;29;20226;-73
2023/03/24 07:25:25;;;;;;;4.75;2.20;;;11.90;99.90;;;;;;4917603;29;20298;-71
2023/03/24 07:27:54;;;;;;;1.10;1.10;;;11.90;99.90;;;;;;4911245;29;20225;-71
2023/03/24 07:30:22;;;;;;;1.07;1.07;;;12.00;99.90;;;;;;4916078;29;20480;-71
2023/03/24 07:32:49;;;;;;;1.17;1.17;;;12.00;99.90;;;;;;4918403;29;20463;-71
2023/03/24 07:35:18;;;;;;;1.10;1.10;;;12.00;99.90;;;;;;4919649;29;20214;-71
2023/03/24 07:37:45;;;;;;;1.40;1.40;;;12.10;99.90;;;;;;4912820;29;20668;-71
2023/03/24 07:40:14;;;;;;;1.10;1.10;;;12.10;99.90;;;;;;4921727;29;20211;-70
2023/03/24 07:42:42;;;;;;;1.60;1.60;;;12.20;99.90;;;;;;4914557;29;20498;-70
2023/03/24 07:45:10;;;;;;;2.10;1.10;;;12.30;99.90;;;;;;4913624;29;20471;-70
2023/03/24 07:47:37;;;;;;;1.50;1.40;;;12.30;99.90;;;;;;4908710;29;20478;-70
2023/03/24 07:50:09;;;;;;;1.60;1.60;;;12.30;99.90;;;;;;4911080;29;20522;-70
2023/03/24 07:52:38;;;;;;;1.33;1.27;;;12.30;99.90;;;;;;4916578;29;20559;-70
2023/03/24 07:55:07;;;;;;;1.37;1.20;;;12.40;99.90;;;;;;4925310;29;20983;-70
2023/03/24 07:57:36;;;;;;;1.07;0.90;;;12.40;99.90;;;;;;4926985;29;20554;-70
2023/03/24 08:00:05;;;;;;;1.50;1.40;;;12.40;99.90;;;;;;4923884;29;20882;-70
2023/03/24 08:02:32;;;;;;;1.27;0.80;;;12.40;99.90;;;;;;4907387;29;20502;-70
2023/03/24 08:04:58;;;;;;;0.83;0.83;;;12.50;99.90;;;;;;4913905;29;20467;-70
2023/03/24 08:07:25;;;;;;;2.57;1.37;;;12.50;99.90;;;;;;4912862;29;20851;-70
2023/03/24 08:09:53;;;;;;;6.63;0.80;;;12.50;99.90;;;;;;4915520;29;20484;-70
2023/03/24 08:12:20;;;;;;;3.10;0.60;;;12.50;99.90;;;;;;4912650;29;20497;-70
2023/03/24 08:14:46;;;;;;;0.50;0.50;;;12.50;99.90;;;;;;4922151;29;20826;-70
2023/03/24 08:17:13;;;;;;;0.50;0.50;;;12.50;99.90;;;;;;4921592;29;20479;-70
2023/03/24 08:19:40;;;;;;;3.23;0.50;;;12.50;99.90;;;;;;4917668;29;20479;-70
2023/03/24 08:22:07;;;;;;;0.57;0.57;;;12.60;99.90;;;;;;4909588;29;20542;-70
2023/03/24 08:24:36;;;;;;;1.27;1.17;;;12.60;99.90;;;;;;4910764;29;20470;-70
2023/03/24 08:27:05;;;;;;;0.57;0.57;;;12.70;99.90;;;;;;4923456;29;20537;-70
2023/03/24 08:29:33;;;;;;;2.00;0.40;;;12.80;99.90;;;;;;4924679;29;20504;-70
2023/03/24 08:32:00;;;;;;;1.50;0.90;;;12.80;99.90;;;;;;4920587;29;20517;-70
2023/03/24 08:34:27;;;;;;;5.20;0.80;;;12.90;99.90;;;;;;4915035;29;20471;-70
2023/03/24 08:36:53;;;;;;;0.43;0.43;;;12.90;99.90;;;;;;4912362;29;20479;-70
2023/03/24 08:39:20;;;;;;;0.83;0.83;;;13.00;99.90;;;;;;4915622;29;20536;-70
2023/03/24 08:41:49;;;;;;;0.70;0.70;;;12.90;99.90;;;;;;4914951;29;20495;-70
2023/03/24 08:44:17;;;;;;;0.90;0.90;;;12.80;99.90;;;;;;4912368;29;20697;-70
2023/03/24 08:46:43;;;;;;;1.33;1.33;;;12.80;99.90;;;;;;4916242;29;20569;-71
2023/03/24 08:49:10;;;;;;;0.77;0.52;;;12.80;99.90;;;;;;4918241;29;20468;-71
2023/03/24 08:51:37;;;;;;;3.80;1.53;;;12.80;99.90;;;;;;4906459;29;20230;-71
2023/03/24 08:54:04;;;;;;;0.57;0.57;;;12.90;99.90;;;;;;4913197;29;20487;-71
2023/03/24 08:56:31;;;;;;;0.20;0.20;;;12.90;99.90;;;;;;4927527;29;20477;-71
2023/03/24 08:58:58;;;;;;;1.40;0.80;;;13.00;99.90;;;;;;4914373;29;20825;-70
2023/03/24 09:01:26;;;;;;;0.80;0.80;;;13.00;99.90;;;;;;4907021;29;20509;-70
2023/03/24 09:03:53;;;;;;;0.47;0.47;;;13.00;99.90;;;;;;4912241;29;20494;-71
2023/03/24 09:06:20;;;;;;;0.37;0.37;;;13.10;99.90;;;;;;4913107;29;20473;-71
2023/03/24 09:08:47;;;;;;;0.50;0.50;;;13.10;99.90;;;;;;4916508;29;20965;-71
2023/03/24 09:11:15;;;;;;;0.40;0.40;;;13.20;99.90;;;;;;4919736;29;20489;-71
2023/03/24 09:13:43;;;;;;;0.87;0.87;;;13.20;99.90;;;;;;4911981;29;20470;-71
2023/03/24 09:16:10;;;;;;;1.30;1.30;;;13.30;99.90;;;;;;4918828;29;20470;-71
2023/03/24 09:18:38;;;;;;;1.83;1.73;;;13.30;99.90;;;;;;4910475;29;20969;-71
2023/03/24 09:21:06;;;;;;;0.40;0.40;;;13.40;99.90;;;;;;4914539;29;21146;-70
2023/03/24 09:23:33;;;;;;;1.27;0.77;;;13.50;99.90;;;;;;4910254;29;21412;-71
2023/03/24 09:26:01;;;;;;;0.47;0.47;;;13.50;99.90;;;;;;4921657;29;20483;-71
2023/03/24 09:28:28;;;;;;;1.50;1.30;;;13.50;99.90;;;;;;4924219;29;20470;-71
2023/03/24 09:30:58;;;;;;;0.83;0.83;;;13.30;99.90;;;;;;4924099;29;20496;-71
2023/03/24 09:33:25;;;;;;;17.73;2.03;;;13.30;99.90;;;;;;4912259;29;20471;-71
2023/03/24 09:35:56;;;;;;;0.43;0.43;;;13.20;99.90;;;;;;4910944;29;20470;-72
2023/03/24 09:38:23;;;;;;;1.20;1.20;;;13.20;99.90;;;;;;4911484;29;20482;-71
2023/03/24 09:40:56;;;;;;;0.40;0.40;;;13.30;99.90;;;;;;4915323;29;20574;-71
2023/03/24 09:43:29;;;;;;;0.80;0.80;;;13.30;99.90;;;;;;4922119;29;20829;-71
2023/03/24 09:45:58;;;;;;;2.47;0.73;;;13.30;99.90;;;;;;4917363;29;20465;-70
2023/03/24 09:48:33;;;;;;;1.40;0.40;;;13.30;99.90;;;;;;4917684;29;20820;-71
2023/03/24 09:51:05;;;;;;;0.30;0.30;;;13.40;99.90;;;;;;4921367;29;20499;-71
2023/03/24 09:53:39;;;;;;;1.13;1.13;;;13.50;99.90;;;;;;4923083;29;20489;-71
2023/03/24 09:56:13;;;;;;;1.00;1.00;;;13.70;99.90;;;;;;4916565;29;20558;-72
2023/03/24 09:58:40;;;;;;;0.40;0.40;;;13.80;99.90;;;;;;4907583;29;20480;-71
2023/03/24 10:01:13;;;;;;;3.50;0.60;;;13.80;99.90;;;;;;4912554;29;20599;-71
2023/03/24 10:03:40;;;;;;;0.40;0.40;;;13.90;99.90;;;;;;4917662;29;20930;-72
2023/03/24 10:06:16;;;;;;;0.40;0.40;;;13.90;99.90;;;;;;4915743;29;20473;-71
2023/03/24 10:08:46;;;;;;;1.53;1.43;;;14.00;99.90;;;;;;4915336;29;20478;-71
2023/03/24 10:11:20;;;;;;;0.43;0.43;;;13.90;99.90;;;;;;4915090;29;20497;-71
2023/03/24 10:14:06;;;;;;;3.23;1.23;;;13.70;99.90;;;;;;4895718;29;20464;-71
2023/03/24 10:16:41;;;;;;;1.00;1.00;;;13.60;99.90;;;;;;4898899;29;20493;-71
2023/03/24 10:19:19;;;;;;;1.13;0.60;;;13.60;99.90;;;;;;4924902;29;20468;-72
2023/03/24 10:21:57;;;;;;;0.50;0.50;;;13.60;99.90;;;;;;4916273;29;20947;-72
2023/03/24 10:24:30;;;;;;;0.40;0.40;;;13.70;99.90;;;;;;4926305;29;20490;-71
2023/03/24 10:27:03;;;;;;;0.43;0.43;;;13.70;99.90;;;;;;4933088;29;20473;-71
2023/03/24 10:29:32;;;;;;;0.70;0.70;;;13.70;99.90;;;;;;4920747;29;20472;-71
2023/03/24 10:32:01;;;;;;;0.30;0.30;;;13.80;99.90;;;;;;4919402;29;20494;-71
2023/03/24 10:34:31;;;;;;;0.33;0.33;;;13.70;99.90;;;;;;4917378;29;20470;-72
2023/03/24 10:37:02;;;;;;;0.50;0.50;;;13.70;99.90;;;;;;4905103;29;22473;-71
2023/03/24 10:39:30;;;;;;;0.40;0.40;;;13.80;99.90;;;;;;4919770;29;20473;-71
2023/03/24 10:41:58;;;;;;;0.30;0.30;;;14.00;99.90;;;;;;4922997;29;20501;-72
2023/03/24 10:44:26;;;;;;;3.70;1.20;;;14.30;99.90;;;;;;4914456;29;20484;-72
2023/03/24 10:46:56;;;;;;;1.40;0.40;;;14.40;99.90;;;;;;4898170;29;20475;-72
2023/03/24 10:49:24;;;;;;;0.43;0.33;;;14.40;99.90;;;;;;4908487;29;20471;-72
2023/03/24 10:51:55;;;;;;;0.67;0.67;;;14.40;99.90;;;;;;4905996;29;20562;-71
2023/03/24 10:54:25;;;;;;;0.43;0.40;;;14.40;99.90;;;;;;4913291;29;20494;-71
2023/03/24 10:57:02;;;;;;;0.30;0.30;;;14.20;99.90;;;;;;4910446;29;20578;-71
2023/03/24 10:59:32;;;;;;;0.30;0.30;;;14.00;99.90;;;;;;4915249;29;20485;-71
2023/03/24 11:02:14;;;;;;;1.43;1.33;;;13.90;99.90;;;;;;4917946;29;20502;-70
2023/03/24 11:04:45;;;;;;;1.03;0.77;;;13.90;99.90;;;;;;4908216;29;20496;-71
2023/03/24 11:07:19;;;;;;;0.30;0.30;;;14.00;99.90;;;;;;4909574;29;20482;-72
2023/03/24 11:09:56;;;;;;;0.63;0.50;;;14.00;99.90;;;;;;4915791;29;20474;-70
2023/03/24 11:12:24;;;;;;;1.43;0.60;;;14.00;99.90;;;;;;4910819;29;20502;-71
2023/03/24 11:14:52;;;;;;;0.70;0.70;;;14.00;99.90;;;;;;4908423;29;20506;-71
2023/03/24 11:17:21;;;;;;;1.80;1.70;;;14.00;99.90;;;;;;4914742;29;20971;-72
2023/03/24 11:19:52;;;;;;;0.50;0.50;;;14.00;99.90;;;;;;4924169;29;20589;-69
2023/03/24 11:22:19;;;;;;;0.60;0.60;;;14.10;99.90;;;;;;4921627;29;20505;-68
2023/03/24 11:24:51;;;;;;;3.43;0.83;;;14.10;99.90;;;;;;4921492;29;20495;-69
2023/03/24 11:27:19;;;;;;;0.40;0.40;;;14.00;99.90;;;;;;4928399;29;20470;-68
2023/03/24 11:29:50;;;;;;;1.33;1.33;;;14.00;99.90;;;;;;4937778;29;20462;-68
2023/03/24 11:32:23;;;;;;;2.47;1.10;;;14.10;99.90;;;;;;4935594;29;20517;-69
2023/03/24 11:34:56;;;;;;;1.03;0.47;;;14.20;99.90;;;;;;4925367;29;20472;-69
2023/03/24 11:37:25;;;;;;;6.03;1.03;;;14.30;99.90;;;;;;4914795;29;20485;-71
2023/03/24 11:40:16;;;;;;;1.33;1.23;;;14.40;99.90;;;;;;4917548;29;20502;-68
2023/03/24 11:42:44;;;;;;;0.83;0.83;;;14.50;99.90;;;;;;4912531;29;20471;-69
2023/03/24 11:45:23;;;;;;;3.37;3.07;;;14.60;99.90;;;;;;4917092;29;20486;-71
2023/03/24 11:47:52;;;;;;;3.83;1.43;;;14.60;99.90;;;;;;4914273;29;20476;-69
2023/03/24 11:50:23;;;;;;;0.37;0.37;;;14.60;99.90;;;;;;4914929;29;20481;-70
2023/03/24 11:52:54;;;;;;;3.60;0.63;;;14.60;99.90;;;;;;4920418;29;20479;-70
2023/03/24 11:55:30;;;;;;;0.50;0.47;;;14.70;99.90;;;;;;4915170;29;20466;-69
2023/03/24 11:58:01;;;;;;;0.70;0.70;;;14.60;99.90;;;;;;4916009;29;20466;-69
2023/03/24 12:00:33;;;;;;;7.00;1.30;;;14.70;99.90;;;;;;4923743;29;20963;-70
2023/03/24 12:03:34;;;;;;;1.37;0.87;;;14.80;99.90;;;;;;4916196;29;20824;-70
2023/03/24 12:06:12;;;;;;;0.77;0.53;;;14.80;99.90;;;;;;4889544;29;20477;-70
2023/03/24 12:08:52;;;;;;;3.10;1.03;;;15.00;99.90;;;;;;4916788;29;20504;-70
2023/03/24 12:11:27;;;;;;;0.80;0.80;;;15.00;99.90;;;;;;4915729;29;20494;-70
2023/03/24 12:13:57;;;;;;;1.80;1.03;;;15.00;99.90;;;;;;4916839;29;20968;-71
2023/03/24 12:16:40;;;;;;;0.87;0.30;;;15.00;99.90;;;;;;4916647;29;21875;-71
2023/03/24 12:19:41;;;;;;;0.40;0.40;;;14.90;99.90;;;;;;4923983;29;20579;-71
2023/03/24 12:22:19;;;;;;;1.27;0.70;;;14.90;99.90;;;;;;4914833;29;20591;-73
2023/03/24 12:25:05;;;;;;;3.50;0.70;;;14.90;99.90;;;;;;4914718;29;20843;-71
2023/03/24 12:27:41;;;;;;;2.23;0.73;;;14.80;99.90;;;;;;4912012;29;20593;-69
2023/03/24 12:30:16;;;;;;;13.87;1.30;;;14.70;99.90;;;;;;4913211;29;20497;-68
2023/03/24 12:33:00;;;;;;;0.37;0.37;;;14.70;99.90;;;;;;4915777;29;20581;-68
2023/03/24 12:35:40;;;;;;;3.13;0.67;;;14.70;99.90;;;;;;4912986;29;20477;-68
2023/03/24 12:38:20;;;;;;;2.00;1.13;;;14.90;99.90;;;;;;4913015;29;20872;-68
2023/03/24 12:41:15;;;;;;;4.80;0.80;;;15.10;99.90;;;;;;4911107;29;20910;-68
2023/03/24 12:43:53;;;;;;;1.10;1.00;;;15.30;99.90;;;;;;4911601;29;21019;-67
2023/03/24 12:46:34;;;;;;;0.47;0.47;;;15.20;99.90;;;;;;4922871;29;20472;-68
2023/03/24 12:49:20;;;;;;;10.33;0.63;;;15.10;99.90;;;;;;4929529;29;20540;-69
2023/03/24 12:51:55;;;;;;;0.50;0.50;;;15.00;99.90;;;;;;4916013;29;20497;-69
2023/03/24 12:54:31;;;;;;;0.60;0.60;;;14.90;99.90;;;;;;4918183;29;20466;-69
2023/03/24 12:57:03;;;;;;;0.97;0.60;;;14.80;99.90;;;;;;4909496;29;20477;-69
2023/03/24 12:59:37;;;;;;;2.67;1.40;;;14.70;99.90;;;;;;4924078;29;20462;-69
2023/03/24 13:02:17;;;;;;;0.90;0.90;;;14.80;99.90;;;;;;4916486;29;20493;-68
2023/03/24 13:04:48;;;;;;;1.07;1.07;;;14.80;99.90;;;;;;4912874;29;20479;-69
2023/03/24 13:07:19;;;;;;;5.70;0.77;;;15.00;99.90;;;;;;4912132;29;20470;-69
2023/03/24 13:09:52;;;;;;;0.73;0.73;;;15.00;99.90;;;;;;4913419;29;20482;-70
2023/03/24 13:12:22;;;;;;;0.50;0.50;;;15.00;99.90;;;;;;4915355;29;20539;-72
2023/03/24 13:15:02;;;;;;;0.60;0.60;;;15.00;99.90;;;;;;4918082;29;20479;-68
2023/03/24 13:17:34;;;;;;;1.30;1.10;;;14.90;99.90;;;;;;4906651;29;20797;-69
2023/03/24 13:20:05;;;;;;;0.40;0.40;;;15.00;99.90;;;;;;4914359;29;20479;-69
2023/03/24 13:22:34;;;;;;;0.67;0.50;;;14.90;99.90;;;;;;4917276;29;20489;-69
2023/03/24 13:25:02;;;;;;;0.50;0.50;;;14.80;99.90;;;;;;4905877;29;20499;-68
2023/03/24 13:27:36;;;;;;;1.90;0.83;;;14.80;99.90;;;;;;4912044;29;20522;-67
2023/03/24 13:30:19;;;;;;;0.43;0.43;;;14.70;99.90;;;;;;4916167;29;20474;-68
2023/03/24 13:32:50;;;;;;;0.70;0.70;;;14.70;99.90;;;;;;4912428;29;20474;-70
2023/03/24 13:35:27;;;;;;;0.60;0.60;;;14.70;99.90;;;;;;4909852;29;20558;-68
2023/03/24 13:38:00;;;;;;;2.37;1.53;;;14.70;99.90;;;;;;4918498;29;20492;-72
2023/03/24 13:40:31;;;;;;;0.80;0.80;;;14.70;99.90;;;;;;4918913;29;20481;-69
2023/03/24 13:43:00;;;;;;;3.27;0.93;;;14.70;99.90;;;;;;4911989;29;20557;-69
2023/03/24 13:45:39;;;;;;;2.50;1.30;;;14.80;99.90;;;;;;4911556;29;20486;-69
2023/03/24 13:48:23;;;;;;;2.20;0.63;;;14.90;99.90;;;;;;4917905;29;20473;-69
2023/03/24 13:50:55;;;;;;;0.70;0.70;;;15.00;99.90;;;;;;4899394;29;20577;-70
2023/03/24 13:53:32;;;;;;;1.80;0.90;;;15.00;99.90;;;;;;4903897;29;20467;-69
2023/03/24 13:56:00;;;;;;;1.00;1.00;;;15.00;99.90;;;;;;4910314;29;20477;-70
2023/03/24 13:58:45;;;;;;;0.70;0.70;;;14.80;99.90;;;;;;4918999;29;20470;-69
2023/03/24 14:01:30;;;;;;;0.60;0.60;;;14.80;99.90;;;;;;4910683;29;20494;-70
2023/03/24 14:04:20;;;;;;;0.90;0.90;;;14.80;99.90;;;;;;4915415;29;20522;-71
2023/03/24 14:06:48;;;;;;;1.23;1.07;;;14.80;99.90;;;;;;4907473;29;20493;-71
2023/03/24 14:09:20;;;;;;;1.17;0.70;;;14.80;99.90;;;;;;4914953;29;20470;-71
2023/03/24 14:12:05;;;;;;;0.60;0.60;;;14.80;99.90;;;;;;4921447;29;20492;-70
2023/03/24 14:14:34;;;;;;;0.30;0.30;;;14.90;99.90;;;;;;4905970;29;20776;-70
2023/03/24 14:17:15;;;;;;;4.40;0.80;;;15.00;99.90;;;;;;4916543;29;20467;-70
2023/03/24 14:19:43;;;;;;;0.30;0.30;;;15.10;99.90;;;;;;4915453;29;20465;-70
2023/03/24 14:22:14;;;;;;;0.90;0.80;;;15.10;99.90;;;;;;4928529;29;20549;-69
2023/03/24 14:24:42;;;;;;;0.60;0.60;;;15.00;99.90;;;;;;4919436;29;20502;-74
2023/03/24 14:27:33;;;;;;;1.30;0.50;;;15.00;99.90;;;;;;4922064;29;20478;-69
2023/03/24 14:30:01;;;;;;;3.47;0.67;;;14.90;99.90;;;;;;4898054;29;20485;-69
2023/03/24 14:32:30;;;;;;;3.97;0.70;;;14.90;99.90;;;;;;4923247;29;20501;-71
2023/03/24 14:34:58;;;;;;;3.70;0.80;;;14.90;99.90;;;;;;4910752;29;20474;-71
2023/03/24 14:37:27;;;;;;;8.10;0.80;;;15.00;99.90;;;;;;4906790;29;20976;-71
2023/03/24 14:39:57;;;;;;;3.73;1.90;;;14.90;99.90;;;;;;4912531;29;20466;-71
2023/03/24 14:42:45;;;;;;;1.57;1.27;;;14.90;99.90;;;;;;4915953;29;20506;-70
2023/03/24 14:45:41;;;;;;;1.60;1.37;;;14.90;99.90;;;;;;4911101;29;20486;-68
2023/03/24 14:48:32;;;;;;;2.10;2.07;;;15.00;99.90;;;;;;4921788;29;20465;-70
2023/03/24 14:51:03;;;;;;;2.00;0.53;;;15.10;99.90;;;;;;4914482;29;21000;-69
2023/03/24 14:53:30;;;;;;;2.33;1.50;;;15.10;99.90;;;;;;4918837;29;20470;-68
2023/03/24 14:55:58;;;;;;;0.67;0.67;;;15.10;99.90;;;;;;4926078;29;20792;-69
2023/03/24 14:58:31;;;;;;;4.00;1.03;;;15.20;99.90;;;;;;4923585;29;20463;-69
2023/03/24 15:01:02;;;;;;;0.70;0.70;;;15.20;99.90;;;;;;4910902;29;20502;-69
2023/03/24 15:03:36;;;;;;;0.30;0.30;;;15.10;99.90;;;;;;4915219;29;20493;-68
2023/03/24 15:06:14;;;;;;;3.13;0.70;;;15.10;99.90;;;;;;4921854;29;20572;-68
2023/03/24 15:08:45;;;;;;;0.50;0.50;;;15.10;99.90;;;;;;4911051;29;20468;-69
2023/03/24 15:11:17;;;;;;;0.73;0.73;;;15.10;99.90;;;;;;4917708;29;20607;-71
2023/03/24 15:13:45;;;;;;;1.80;1.27;;;15.00;99.90;;;;;;4921715;29;20485;-67
2023/03/24 15:16:19;;;;;;;2.73;0.90;;;14.90;99.90;;;;;;4916602;29;20474;-69
2023/03/24 15:18:50;;;;;;;0.40;0.40;;;14.80;99.90;;;;;;4917018;29;20476;-69
2023/03/24 15:21:24;;;;;;;0.50;0.50;;;14.70;99.90;;;;;;4911455;29;20482;-71
2023/03/24 15:23:51;;;;;;;0.40;0.40;;;14.70;99.90;;;;;;4912465;29;20512;-70
2023/03/24 15:26:22;;;;;;;1.07;0.83;;;14.60;99.90;;;;;;4914401;29;20490;-70
2023/03/24 15:28:55;;;;;;;1.47;0.43;;;14.70;99.90;;;;;;4922717;29;20518;-68
2023/03/24 15:31:23;;;;;;;0.77;0.77;;;14.90;99.90;;;;;;4913688;29;20490;-69
2023/03/24 15:33:52;;;;;;;0.40;0.40;;;15.00;99.90;;;;;;4917774;29;20478;-68
2023/03/24 15:36:22;;;;;;;0.60;0.60;;;15.00;99.90;;;;;;4910785;29;20534;-69
2023/03/24 15:38:51;;;;;;;0.70;0.70;;;15.00;99.90;;;;;;4912020;29;20466;-69
2023/03/24 15:41:22;;;;;;;1.53;0.87;;;14.90;99.90;;;;;;4920379;29;20593;-69
2023/03/24 15:43:52;;;;;;;3.50;0.80;;;14.90;99.90;;;;;;4911403;29;20481;-68
2023/03/24 15:46:23;;;;;;;0.80;0.80;;;14.90;99.90;;;;;;4914688;29;20470;-68
2023/03/24 15:48:52;;;;;;;0.40;0.40;;;14.80;99.90;;;;;;4915794;29;20480;-67
2023/03/24 15:51:19;;;;;;;2.37;0.60;;;14.70;99.90;;;;;;4918006;29;20505;-70
2023/03/24 15:53:55;;;;;;;0.30;0.30;;;14.60;99.90;;;;;;4923268;29;20465;-68
2023/03/24 15:56:27;;;;;;;0.80;0.80;;;14.60;99.90;;;;;;4912020;29;20474;-70
2023/03/24 15:58:54;;;;;;;1.80;1.70;;;14.50;99.90;;;;;;4917489;29;20483;-72
2023/03/24 16:01:30;;;;;;;3.30;1.17;;;14.50;99.90;;;;;;4913472;29;20513;-69
2023/03/24 16:04:00;;;;;;;0.70;0.70;;;14.40;99.90;;;;;;4915054;29;20476;-69
2023/03/24 16:06:29;;;;;;;4.60;0.80;;;14.40;99.90;;;;;;4915860;29;20554;-69
2023/03/24 16:08:59;;;;;;;1.80;1.00;;;14.20;99.90;;;;;;4922892;29;20474;-68
2023/03/24 16:11:26;;;;;;;0.67;0.67;;;14.20;99.90;;;;;;4915814;29;20857;-70
2023/03/24 16:13:53;;;;;;;2.00;0.60;;;14.10;99.90;;;;;;4916241;29;20808;-71
2023/03/24 16:16:26;;;;;;;0.80;0.80;;;14.00;99.90;;;;;;4919247;29;21175;-68
2023/03/24 16:18:53;;;;;;;1.27;0.93;;;14.00;99.90;;;;;;4921803;29;20473;-68
2023/03/24 16:21:23;;;;;;;0.40;0.40;;;13.90;99.90;;;;;;4911081;29;20572;-70
2023/03/24 16:23:52;;;;;;;0.80;0.80;;;13.80;99.90;;;;;;4917627;29;20470;-70
2023/03/24 16:26:20;;;;;;;0.50;0.50;;;13.80;99.90;;;;;;4921210;29;20504;-70
2023/03/24 16:28:48;;;;;;;0.60;0.60;;;13.70;99.90;;;;;;4924414;29;20489;-70
2023/03/24 16:31:21;;;;;;;3.90;0.80;;;13.60;99.90;;;;;;4921365;29;20493;-69
2023/03/24 16:33:48;;;;;;;1.53;0.37;;;13.50;99.90;;;;;;4916290;29;20471;-69
2023/03/24 16:36:16;;;;;;;0.23;0.23;;;13.50;99.90;;;;;;4914014;29;20815;-70
2023/03/24 16:38:45;;;;;;;3.20;0.50;;;13.50;99.90;;;;;;4916243;29;20474;-71
2023/03/24 16:41:13;;;;;;;1.00;1.00;;;13.40;99.90;;;;;;4910125;29;20523;-70
2023/03/24 16:43:40;;;;;;;0.47;0.47;;;13.30;99.90;;;;;;4921561;29;20833;-70
2023/03/24 16:46:11;;;;;;;4.63;0.70;;;13.20;99.90;;;;;;4920026;29;21192;-69
2023/03/24 16:48:38;;;;;;;0.90;0.30;;;13.20;99.90;;;;;;4914050;29;20470;-69
2023/03/24 16:51:06;;;;;;;3.00;0.60;;;13.10;99.90;;;;;;4915010;29;20578;-70
2023/03/24 16:53:32;;;;;;;0.77;0.53;;;12.90;99.90;;;;;;4919071;29;20503;-69
2023/03/24 16:56:01;;;;;;;1.20;1.20;;;13.00;99.90;;;;;;4912775;29;20470;-69
2023/03/24 16:58:29;;;;;;;0.70;0.70;;;12.90;99.90;;;;;;4918503;29;20474;-70
2023/03/24 17:00:57;;;;;;;2.23;1.13;;;12.90;99.90;;;;;;4917094;29;21141;-70
2023/03/24 17:03:28;;;;;;;1.40;0.80;;;12.80;99.90;;;;;;4911340;29;20474;-69
2023/03/24 17:05:56;;;;;;;1.07;0.60;;;12.70;99.90;;;;;;4914468;29;20484;-70
2023/03/24 17:08:23;;;;;;;0.83;0.80;;;12.60;99.90;;;;;;4914439;29;20841;-70
2023/03/24 17:10:52;;;;;;;0.20;0.20;;;12.50;99.90;;;;;;4919974;29;20496;-70
2023/03/24 17:13:22;;;;;;;0.87;0.50;;;12.40;99.90;;;;;;4916665;29;20481;-69
2023/03/24 17:15:50;;;;;;;0.40;0.40;;;12.40;99.90;;;;;;4908392;29;20494;-69
2023/03/24 17:18:17;;;;;;;0.67;0.67;;;12.30;99.90;;;;;;4914986;29;20940;-69
2023/03/24 17:20:44;;;;;;;0.40;0.40;;;12.20;99.90;;;;;;4925521;29;20511;-69
2023/03/24 17:23:13;;;;;;;3.93;0.30;;;12.10;99.90;;;;;;4909210;29;20831;-68
2023/03/24 17:25:40;;;;;;;3.53;1.33;;;12.00;99.90;;;;;;4909847;29;20487;-69
2023/03/24 17:28:13;;;;;;;0.40;0.40;;;12.00;99.90;;;;;;4921488;29;20221;-69
2023/03/24 17:30:41;;;;;;;0.77;0.73;;;11.90;99.90;;;;;;4915585;29;20489;-69
2023/03/24 17:33:12;;;;;;;3.47;1.63;;;11.90;99.90;;;;;;4922489;29;20462;-69
2023/03/24 17:35:39;;;;;;;1.00;1.00;;;11.90;99.90;;;;;;4913762;29;20470;-69
2023/03/24 17:38:06;;;;;;;13.38;1.65;;;11.80;99.90;;;;;;4920884;29;20642;-71
2023/03/24 17:40:32;;;;;;;0.87;0.87;;;11.80;99.90;;;;;;4923416;29;20596;-69
2023/03/24 17:42:59;;;;;;;0.55;0.55;;;11.80;99.90;;;;;;4910316;29;20959;-69
2023/03/24 17:45:26;;;;;;;2.85;1.30;;;11.70;99.90;;;;;;4917720;29;20226;-68
2023/03/24 17:47:54;;;;;;;1.50;0.73;;;11.70;99.90;;;;;;4912657;29;20222;-68
2023/03/24 17:50:21;;;;;;;0.93;0.93;;;11.60;99.90;;;;;;4910671;29;20215;-68
2023/03/24 17:52:48;;;;;;;0.50;0.50;;;11.60;99.90;;;;;;4914185;29;20325;-68
2023/03/24 17:55:16;;;;;;;0.40;0.40;;;11.50;99.90;;;;;;4915068;29;20267;-68
2023/03/24 17:57:44;;;;;;;2.97;1.70;;;11.50;99.90;;;;;;4912138;29;20215;-68
2023/03/24 18:00:13;;;;;;;3.72;1.00;;;11.40;99.90;;;;;;4914778;29;20210;-69
2023/03/24 18:02:41;;;;;;;0.85;0.85;;;11.40;99.90;;;;;;4911808;29;20325;-69